createdAt,value
2018-12-10T00:01:09.127Z,75.40
2018-12-10T00:03:37.494Z,75.50
2018-12-10T00:06:06.063Z,75.40
2018-12-10T00:08:34.432Z,75.90
2018-12-10T00:11:02.798Z,75.70
2018-12-10T00:13:31.266Z,76.10
2018-12-10T00:15:59.749Z,76.10
2018-12-10T00:18:28.230Z,76.00
2018-12-10T00:20:56.611Z,76.20
2018-12-10T00:23:24.971Z,75.50
2018-12-10T00:25:53.380Z,76.10
2018-12-10T00:28:21.732Z,76.10
2018-12-10T00:30:50.104Z,76.00
2018-12-10T00:33:18.457Z,76.00
2018-12-10T00:35:46.936Z,75.70
2018-12-10T00:38:15.296Z,75.00
2018-12-10T00:40:43.699Z,74.90
2018-12-10T00:43:12.164Z,74.90
2018-12-10T00:45:40.512Z,75.10
2018-12-10T00:48:08.868Z,74.80
2018-12-10T00:50:37.272Z,73.90
2018-12-10T00:53:05.633Z,73.40
2018-12-10T00:55:33.978Z,74.00
2018-12-10T00:58:02.353Z,74.00
2018-12-10T01:00:30.801Z,74.40
2018-12-10T01:02:59.204Z,74.20
2018-12-10T01:05:27.551Z,74.00
2018-12-10T01:07:55.895Z,73.70
2018-12-10T01:10:24.254Z,74.00
2018-12-10T01:12:52.596Z,75.30
2018-12-10T01:15:20.988Z,76.90
2018-12-10T01:17:49.533Z,76.90
2018-12-10T01:20:17.864Z,77.10
2018-12-10T01:22:46.197Z,77.30
2018-12-10T01:25:14.564Z,76.90
2018-12-10T01:27:42.905Z,77.00
2018-12-10T01:30:11.401Z,76.40
2018-12-10T01:32:40.388Z,76.80
2018-12-10T01:35:08.856Z,76.70
2018-12-10T01:37:37.907Z,76.40
2018-12-10T01:40:06.327Z,76.10
2018-12-10T01:42:34.675Z,76.20
2018-12-10T01:45:03.217Z,75.70
2018-12-10T01:47:31.583Z,76.10
2018-12-10T01:49:59.943Z,76.40
2018-12-10T01:52:28.299Z,76.60
2018-12-10T01:54:56.647Z,76.50
2018-12-10T01:57:25.000Z,76.20
2018-12-10T01:59:53.371Z,75.40
2018-12-10T02:02:21.739Z,75.30
2018-12-10T02:04:50.082Z,74.60
2018-12-10T02:07:18.524Z,74.20
2018-12-10T02:09:46.881Z,74.40
2018-12-10T02:12:15.244Z,73.90
2018-12-10T02:14:43.735Z,73.70
2018-12-10T02:17:12.137Z,74.10
2018-12-10T02:19:41.472Z,73.70
2018-12-10T02:22:10.248Z,73.20
2018-12-10T02:24:38.695Z,72.60
2018-12-10T02:27:07.084Z,72.80
2018-12-10T02:29:35.428Z,72.60
2018-12-10T02:32:03.772Z,72.10
2018-12-10T02:34:32.130Z,72.00
2018-12-10T02:37:00.496Z,71.60
2018-12-10T02:39:28.844Z,71.50
2018-12-10T02:41:57.607Z,71.70
2018-12-10T02:44:25.973Z,71.40
2018-12-10T02:46:54.979Z,71.50
2018-12-10T02:49:23.461Z,72.00
2018-12-10T02:51:51.801Z,72.60
2018-12-10T02:54:20.239Z,72.90
2018-12-10T02:56:48.579Z,73.60
2018-12-10T02:59:16.947Z,73.60
2018-12-10T03:01:45.311Z,74.00
2018-12-10T03:04:13.884Z,74.00
2018-12-10T03:06:42.387Z,73.00
2018-12-10T03:09:10.827Z,72.80
2018-12-10T03:11:39.268Z,72.20
2018-12-10T03:14:07.753Z,71.90
2018-12-10T03:16:36.106Z,71.70
2018-12-10T03:19:04.930Z,71.00
2018-12-10T03:21:33.433Z,71.30
2018-12-10T03:24:01.883Z,70.90
2018-12-10T03:26:30.334Z,71.40
2018-12-10T03:28:58.914Z,71.70
2018-12-10T03:31:27.338Z,71.10
2018-12-10T03:33:55.896Z,71.10
2018-12-10T03:36:24.332Z,71.20
2018-12-10T03:38:52.679Z,71.10
2018-12-10T03:41:21.151Z,71.10
2018-12-10T03:43:49.497Z,71.10
2018-12-10T03:46:17.874Z,71.50
2018-12-10T03:48:46.564Z,71.10
2018-12-10T03:51:14.958Z,71.60
2018-12-10T03:53:43.323Z,72.20
2018-12-10T03:56:11.706Z,71.60
2018-12-10T03:58:40.170Z,71.10
2018-12-10T04:01:08.535Z,71.50
2018-12-10T04:03:36.890Z,71.60
2018-12-10T04:06:05.290Z,71.60
2018-12-10T04:08:33.646Z,71.10
2018-12-10T04:11:02.040Z,71.20
2018-12-10T04:13:30.402Z,71.00
2018-12-10T04:15:58.744Z,70.40
2018-12-10T04:18:27.102Z,71.10
2018-12-10T04:20:55.467Z,70.70
2018-12-10T04:23:23.899Z,71.30
2018-12-10T04:25:52.256Z,71.40
2018-12-10T04:28:20.610Z,71.60
2018-12-10T04:30:49.077Z,71.90
2018-12-10T04:33:17.612Z,73.00
2018-12-10T04:35:45.947Z,73.40
2018-12-10T04:38:14.359Z,74.20
2018-12-10T04:40:42.835Z,74.00
2018-12-10T04:43:11.243Z,74.20
2018-12-10T04:45:39.715Z,74.50
2018-12-10T04:48:08.095Z,74.70
2018-12-10T04:50:36.499Z,74.00
2018-12-10T04:53:04.861Z,74.20
2018-12-10T04:55:33.231Z,74.60
2018-12-10T04:58:01.595Z,74.40
2018-12-10T05:00:29.954Z,74.20
2018-12-10T05:02:58.311Z,73.60
2018-12-10T05:05:26.679Z,74.40
2018-12-10T05:07:55.012Z,73.50
2018-12-10T05:10:23.364Z,74.00
2018-12-10T05:12:51.752Z,73.80
2018-12-10T05:15:20.108Z,73.20
2018-12-10T05:17:48.546Z,73.80
2018-12-10T05:20:16.911Z,74.10
2018-12-10T05:22:45.267Z,73.60
2018-12-10T05:25:13.763Z,74.00
2018-12-10T05:27:42.360Z,73.50
2018-12-10T05:30:10.715Z,73.10
2018-12-10T05:32:39.074Z,72.10
2018-12-10T05:35:07.716Z,72.70
2018-12-10T05:37:36.063Z,72.90
2018-12-10T05:40:05.307Z,72.90
2018-12-10T05:42:33.680Z,72.90
2018-12-10T05:45:02.032Z,72.60
2018-12-10T05:47:30.385Z,72.60
2018-12-10T05:49:58.731Z,72.40
2018-12-10T05:52:27.095Z,71.50
2018-12-10T05:54:55.464Z,71.70
2018-12-10T05:57:24.120Z,72.20
2018-12-10T05:59:52.465Z,72.10
2018-12-10T06:02:20.964Z,71.60
2018-12-10T06:04:49.328Z,71.70
2018-12-10T06:07:17.704Z,71.50
2018-12-10T06:09:46.297Z,71.40
2018-12-10T06:12:14.712Z,70.80
2018-12-10T06:14:43.127Z,70.80
2018-12-10T06:17:11.625Z,70.30
2018-12-10T06:19:40.135Z,70.60
2018-12-10T06:22:08.500Z,71.20
2018-12-10T06:24:36.935Z,71.00
2018-12-10T06:27:05.295Z,70.80
2018-12-10T06:29:33.651Z,70.80
2018-12-10T06:32:02.186Z,70.60
2018-12-10T06:34:30.535Z,70.60
2018-12-10T06:36:58.895Z,70.50
2018-12-10T06:39:27.294Z,71.40
2018-12-10T06:41:55.699Z,70.50
2018-12-10T06:44:24.184Z,71.80
2018-12-10T06:46:52.628Z,71.10
2018-12-10T06:49:20.984Z,70.70
2018-12-10T06:51:49.351Z,71.40
2018-12-10T06:54:17.736Z,71.20
2018-12-10T06:56:46.504Z,71.10
2018-12-10T06:59:14.915Z,71.10
2018-12-10T07:01:43.509Z,71.50
2018-12-10T07:04:11.859Z,71.20
2018-12-10T07:06:40.302Z,71.30
2018-12-10T07:09:08.801Z,71.20
2018-12-10T07:11:37.154Z,71.30
2018-12-10T07:14:05.546Z,71.10
2018-12-10T07:16:34.369Z,71.00
2018-12-10T07:19:02.737Z,70.60
2018-12-10T07:21:31.075Z,70.80
2018-12-10T07:23:59.454Z,71.30
2018-12-10T07:26:27.888Z,71.20
2018-12-10T07:28:56.237Z,71.00
2018-12-10T07:31:24.596Z,71.40
2018-12-10T07:33:52.936Z,71.00
2018-12-10T07:36:21.284Z,71.50
2018-12-10T07:38:49.748Z,71.30
2018-12-10T07:41:18.143Z,71.70
2018-12-10T07:43:47.132Z,72.00
2018-12-10T07:46:15.475Z,72.10
2018-12-10T07:48:43.840Z,72.00
2018-12-10T07:51:12.191Z,72.30
2018-12-10T07:53:40.543Z,72.20
2018-12-10T07:56:09.007Z,72.40
2018-12-10T07:58:37.364Z,72.40
2018-12-10T08:01:05.840Z,72.40
2018-12-10T08:03:37.071Z,73.50
2018-12-10T08:06:05.512Z,73.50
2018-12-10T08:08:33.871Z,73.00
2018-12-10T08:11:02.355Z,72.90
2018-12-10T08:13:30.718Z,72.90
2018-12-10T08:15:59.200Z,73.60
2018-12-10T08:18:27.539Z,73.70
2018-12-10T08:21:02.117Z,72.80
2018-12-10T08:23:26.248Z,73.00
2018-12-10T08:25:54.671Z,73.30
2018-12-10T08:28:23.059Z,73.00
2018-12-10T08:30:51.414Z,72.60
2018-12-10T08:33:19.815Z,72.10
2018-12-10T08:35:48.189Z,71.80
2018-12-10T08:38:16.648Z,72.00
2018-12-10T08:40:45.008Z,71.70
2018-12-10T08:43:13.390Z,72.00
2018-12-10T08:45:41.962Z,71.90
2018-12-10T08:48:10.563Z,71.70
2018-12-10T08:50:38.896Z,72.60
2018-12-10T08:53:07.246Z,71.20
2018-12-10T08:55:35.767Z,71.10
2018-12-10T08:58:04.343Z,70.40
2018-12-10T09:00:32.700Z,70.70
2018-12-10T09:03:01.366Z,70.10
2018-12-10T09:05:29.962Z,70.10
2018-12-10T09:07:58.335Z,70.40
2018-12-10T09:10:26.807Z,69.90
2018-12-10T09:12:56.187Z,70.00
2018-12-10T09:15:25.116Z,69.60
2018-12-10T09:17:53.463Z,69.70
2018-12-10T09:20:21.824Z,69.90
2018-12-10T09:22:50.159Z,69.50
2018-12-10T09:25:18.559Z,69.30
2018-12-10T09:27:47.109Z,69.10
2018-12-10T09:30:15.480Z,69.50
2018-12-10T09:32:43.816Z,69.10
2018-12-10T09:35:12.180Z,68.90
2018-12-10T09:37:40.531Z,68.40
2018-12-10T09:40:10.408Z,68.00
2018-12-10T09:42:38.764Z,67.90
2018-12-10T09:45:07.562Z,68.60
2018-12-10T09:47:35.995Z,68.10
2018-12-10T09:50:04.925Z,68.10
2018-12-10T09:52:33.301Z,67.70
2018-12-10T09:55:01.659Z,67.90
2018-12-10T09:57:30.016Z,67.80
2018-12-10T09:59:58.599Z,67.80
2018-12-10T10:02:27.084Z,67.80
2018-12-10T10:04:55.414Z,67.50
2018-12-10T10:07:28.458Z,67.60
2018-12-10T10:09:54.579Z,67.10
2018-12-10T10:12:23.732Z,67.30
2018-12-10T10:14:53.805Z,66.90
2018-12-10T10:17:22.361Z,68.10
2018-12-10T10:19:50.708Z,68.10
2018-12-10T10:22:19.960Z,67.90
2018-12-10T10:24:48.424Z,67.00
2018-12-10T10:27:16.783Z,66.70
2018-12-10T10:29:45.131Z,66.90
2018-12-10T10:32:13.488Z,67.70
2018-12-10T10:34:41.978Z,68.50
2018-12-10T10:37:10.379Z,69.00
2018-12-10T10:39:38.731Z,68.50
2018-12-10T10:42:07.195Z,69.00
2018-12-10T10:44:35.550Z,68.90
2018-12-10T10:47:05.265Z,68.90
2018-12-10T10:49:33.789Z,68.80
2018-12-10T10:52:02.151Z,68.90
2018-12-10T10:54:37.079Z,69.20
2018-12-10T10:57:05.709Z,68.40
2018-12-10T10:59:34.255Z,69.00
2018-12-10T11:02:08.088Z,68.50
2018-12-10T11:04:37.515Z,68.60
2018-12-10T11:07:06.458Z,67.80
2018-12-10T11:09:35.073Z,67.80
2018-12-10T11:12:03.438Z,67.30
2018-12-10T11:14:31.813Z,67.10
2018-12-10T11:17:00.243Z,67.10
2018-12-10T11:19:28.590Z,67.10
2018-12-10T11:21:57.100Z,67.30
2018-12-10T11:24:25.471Z,67.20
2018-12-10T11:26:53.830Z,67.20
2018-12-10T11:29:22.491Z,67.00
2018-12-10T11:31:50.942Z,67.20
2018-12-10T11:34:19.439Z,66.90
2018-12-10T11:36:47.979Z,66.90
2018-12-10T11:39:16.808Z,67.20
2018-12-10T11:41:46.598Z,67.10
2018-12-10T11:44:15.256Z,66.80
2018-12-10T11:46:43.602Z,66.50
2018-12-10T11:49:11.963Z,67.10
2018-12-10T11:51:40.371Z,66.90
2018-12-10T11:54:08.900Z,67.10
2018-12-10T11:56:37.608Z,67.30
2018-12-10T11:59:05.958Z,67.30
2018-12-10T12:01:34.409Z,67.40
2018-12-10T12:04:02.767Z,66.90
2018-12-10T12:06:31.455Z,66.80
2018-12-10T12:08:59.928Z,66.40
2018-12-10T12:11:28.328Z,66.70
2018-12-10T12:13:56.763Z,66.60
2018-12-10T12:16:25.263Z,67.00
2018-12-10T12:18:53.808Z,66.80
2018-12-10T12:21:22.247Z,66.70
2018-12-10T12:23:50.603Z,66.30
2018-12-10T12:26:18.977Z,65.70
2018-12-10T12:28:47.431Z,65.80
2018-12-10T12:31:15.807Z,65.30
2018-12-10T12:33:44.186Z,65.90
2018-12-10T12:36:12.542Z,65.90
2018-12-10T12:38:41.144Z,65.50
2018-12-10T12:41:09.695Z,65.40
2018-12-10T12:43:38.073Z,66.00
2018-12-10T12:46:06.455Z,65.50
2018-12-10T12:48:35.008Z,67.10
2018-12-10T12:51:03.540Z,66.80
2018-12-10T12:53:31.912Z,66.50
2018-12-10T12:56:00.467Z,66.10
2018-12-10T12:58:28.859Z,65.60
2018-12-10T13:00:59.841Z,65.60
2018-12-10T13:03:27.689Z,65.00
2018-12-10T13:05:56.069Z,65.40
2018-12-10T13:08:30.988Z,65.70
2018-12-10T13:10:54.895Z,65.60
2018-12-10T13:13:23.254Z,64.90
2018-12-10T13:15:51.936Z,64.90
2018-12-10T13:18:20.339Z,64.20
2018-12-10T13:20:49.324Z,63.90
2018-12-10T13:23:17.738Z,64.00
2018-12-10T13:25:46.181Z,64.00
2018-12-10T13:28:14.648Z,64.40
2018-12-10T13:30:43.282Z,65.50
2018-12-10T13:33:11.811Z,65.70
2018-12-10T13:35:40.319Z,65.10
2018-12-10T13:38:12.454Z,64.30
2018-12-10T13:40:39.754Z,63.60
2018-12-10T13:43:08.312Z,63.30
2018-12-10T13:45:37.401Z,63.50
2018-12-10T13:48:05.759Z,64.30
2018-12-10T13:50:34.256Z,63.60
2018-12-10T13:53:02.767Z,63.10
2018-12-10T13:55:31.288Z,62.70
2018-12-10T13:57:59.735Z,62.50
2018-12-10T14:00:28.208Z,63.20
2018-12-10T14:02:58.584Z,62.40
2018-12-10T14:05:27.006Z,62.40
2018-12-10T14:07:55.452Z,62.60
2018-12-10T14:10:23.819Z,61.90
2018-12-10T14:12:52.540Z,62.60
2018-12-10T14:15:20.905Z,62.60
2018-12-10T14:17:49.271Z,62.70
2018-12-10T14:20:17.786Z,61.60
2018-12-10T14:22:46.329Z,61.70
2018-12-10T14:25:24.030Z,61.70
2018-12-10T14:27:53.076Z,61.70
2018-12-10T14:30:22.167Z,60.90
2018-12-10T14:32:50.540Z,60.20
2018-12-10T14:35:19.066Z,60.90
2018-12-10T14:37:47.563Z,60.40
2018-12-10T14:40:16.322Z,60.50
2018-12-10T14:42:51.556Z,60.70
2018-12-10T14:45:20.032Z,60.80
2018-12-10T14:47:52.327Z,61.00
2018-12-10T14:50:20.929Z,61.10
2018-12-10T14:52:49.318Z,61.50
2018-12-10T14:55:17.719Z,60.90
2018-12-10T14:57:46.175Z,61.20
2018-12-10T15:00:14.685Z,61.20
2018-12-10T15:02:43.115Z,60.90
2018-12-10T15:05:12.130Z,60.60
2018-12-10T15:07:41.700Z,61.00
2018-12-10T15:10:11.184Z,60.90
2018-12-10T15:12:39.753Z,62.00
2018-12-10T15:15:10.021Z,61.60
2018-12-10T15:17:38.541Z,61.70
2018-12-10T15:20:12.828Z,61.50
2018-12-10T15:22:42.274Z,62.00
2018-12-10T15:25:11.050Z,61.80
2018-12-10T15:27:39.533Z,62.00
2018-12-10T15:30:10.462Z,61.90
2018-12-10T15:32:38.816Z,62.00
2018-12-10T15:35:07.814Z,62.00
2018-12-10T15:37:36.460Z,62.40
2018-12-10T15:40:06.307Z,62.70
2018-12-10T15:42:34.759Z,63.00
2018-12-10T15:45:03.136Z,62.80
2018-12-10T15:47:31.575Z,63.10
2018-12-10T15:50:00.086Z,63.10
2018-12-10T15:52:28.441Z,62.70
2018-12-10T15:54:56.904Z,62.50
2018-12-10T15:57:25.307Z,62.50
2018-12-10T15:59:53.744Z,62.30
2018-12-10T16:02:22.112Z,62.30
2018-12-10T16:04:50.719Z,62.70
2018-12-10T16:07:19.226Z,62.70
2018-12-10T16:09:47.908Z,62.70
2018-12-10T16:12:16.406Z,62.30
2018-12-10T16:14:44.764Z,62.20
2018-12-10T16:17:13.212Z,62.40
2018-12-10T16:19:41.581Z,62.40
2018-12-10T16:22:10.122Z,62.40
2018-12-10T16:24:38.589Z,62.60
2018-12-10T16:27:07.171Z,63.10
2018-12-10T16:29:35.664Z,63.20
2018-12-10T16:32:04.247Z,63.50
2018-12-10T16:34:32.691Z,63.70
2018-12-10T16:37:01.054Z,63.50
2018-12-10T16:39:29.524Z,63.60
2018-12-10T16:41:57.983Z,63.90
2018-12-10T16:44:26.576Z,64.10
2018-12-10T16:46:54.958Z,64.10
2018-12-10T16:49:23.419Z,64.20
2018-12-10T16:51:52.066Z,65.60
2018-12-10T16:54:20.451Z,68.90
2018-12-10T16:56:48.816Z,70.90
2018-12-10T16:59:17.388Z,72.80
2018-12-10T17:01:45.768Z,73.00
2018-12-10T17:04:14.124Z,72.80
2018-12-10T17:06:42.537Z,74.70
2018-12-10T17:09:12.220Z,74.40
2018-12-10T17:11:41.044Z,76.00
2018-12-10T17:14:09.712Z,76.10
2018-12-10T17:16:38.607Z,75.20
2018-12-10T17:19:07.075Z,74.50
2018-12-10T17:21:35.478Z,74.60
2018-12-10T17:24:04.060Z,75.00
2018-12-10T17:26:32.436Z,73.50
2018-12-10T17:29:01.057Z,72.20
2018-12-10T17:31:29.444Z,71.10
2018-12-10T17:33:57.819Z,71.90
2018-12-10T17:36:26.366Z,71.30
2018-12-10T17:38:54.863Z,71.20
2018-12-10T17:41:23.256Z,71.30
2018-12-10T17:43:51.728Z,70.90
2018-12-10T17:46:20.690Z,70.70
2018-12-10T17:48:49.320Z,70.80
2018-12-10T17:51:17.681Z,70.00
2018-12-10T17:53:46.433Z,70.20
2018-12-10T17:56:15.079Z,69.70
2018-12-10T17:58:43.593Z,69.90
2018-12-10T18:01:11.982Z,70.60
2018-12-10T18:03:40.428Z,70.20
2018-12-10T18:06:08.986Z,70.20
2018-12-10T18:08:37.556Z,70.10
2018-12-10T18:11:05.979Z,70.40
2018-12-10T18:13:34.532Z,70.70
2018-12-10T18:16:02.917Z,70.00
2018-12-10T18:18:31.324Z,70.20
2018-12-10T18:20:59.712Z,69.20
2018-12-10T18:23:28.313Z,68.60
2018-12-10T18:25:56.713Z,69.10
2018-12-10T18:28:25.116Z,68.00
2018-12-10T18:30:53.819Z,67.40
2018-12-10T18:33:22.276Z,67.30
2018-12-10T18:35:50.766Z,67.70
2018-12-10T18:38:19.251Z,67.50
2018-12-10T18:40:47.645Z,67.70
2018-12-10T18:43:16.647Z,67.30
2018-12-10T18:45:45.174Z,68.20
2018-12-10T18:48:13.702Z,68.80
2018-12-10T18:50:42.147Z,69.20
2018-12-10T18:53:10.588Z,69.80
2018-12-10T18:55:39.029Z,70.80
2018-12-10T18:58:07.491Z,73.80
2018-12-10T19:00:35.846Z,76.60
2018-12-10T19:03:04.677Z,77.30
2018-12-10T19:05:33.336Z,77.90
2018-12-10T19:08:01.732Z,78.10
2018-12-10T19:10:30.484Z,78.30
2018-12-10T19:12:59.295Z,77.60
2018-12-10T19:15:27.833Z,77.30
2018-12-10T19:17:56.293Z,77.60
2018-12-10T19:20:24.725Z,77.60
2018-12-10T19:22:53.100Z,77.50
2018-12-10T19:25:21.484Z,77.80
2018-12-10T19:27:49.994Z,78.00
2018-12-10T19:30:18.517Z,78.00
2018-12-10T19:32:47.217Z,77.50
2018-12-10T19:35:15.808Z,77.60
2018-12-10T19:37:44.279Z,77.40
2018-12-10T19:40:12.891Z,77.10
2018-12-10T19:42:41.292Z,77.70
2018-12-10T19:45:09.872Z,76.70
2018-12-10T19:47:38.286Z,77.20
2018-12-10T19:50:07.904Z,76.70
2018-12-10T19:52:36.473Z,77.30
2018-12-10T19:55:05.900Z,77.20
2018-12-10T19:57:34.795Z,77.10
2018-12-10T20:00:03.488Z,76.60
2018-12-10T20:02:32.432Z,77.00
2018-12-10T20:05:00.830Z,77.10
2018-12-10T20:07:29.714Z,77.10
2018-12-10T20:09:58.108Z,78.20
2018-12-10T20:12:26.500Z,77.80
2018-12-10T20:14:54.901Z,78.00
2018-12-10T20:17:23.592Z,78.10
2018-12-10T20:19:52.007Z,78.10
2018-12-10T20:22:20.404Z,78.50
2018-12-10T20:24:48.843Z,78.50
2018-12-10T20:27:17.445Z,78.50
2018-12-10T20:29:46.081Z,78.50
2018-12-10T20:32:14.666Z,78.70
2018-12-10T20:34:43.334Z,78.40
2018-12-10T20:37:12.025Z,78.50
2018-12-10T20:39:40.453Z,78.30
2018-12-10T20:42:08.984Z,78.80
2018-12-10T20:44:37.331Z,78.10
2018-12-10T20:47:06.008Z,78.60
2018-12-10T20:49:34.425Z,78.70
2018-12-10T20:52:02.892Z,78.70
2018-12-10T20:54:31.324Z,78.90
2018-12-10T20:56:59.808Z,79.00
2018-12-10T20:59:28.191Z,78.90
2018-12-10T21:01:56.555Z,79.30
2018-12-10T21:04:25.187Z,79.20
2018-12-10T21:06:53.597Z,79.00
2018-12-10T21:09:21.961Z,78.70
2018-12-10T21:11:50.538Z,78.60
2018-12-10T21:14:19.007Z,79.00
2018-12-10T21:16:47.505Z,78.70
2018-12-10T21:19:16.006Z,78.40
2018-12-10T21:21:44.616Z,78.30
2018-12-10T21:24:12.980Z,77.60
2018-12-10T21:26:41.491Z,77.60
2018-12-10T21:29:09.872Z,77.50
2018-12-10T21:31:38.432Z,77.50
2018-12-10T21:34:06.855Z,76.90
2018-12-10T21:36:35.249Z,77.30
2018-12-10T21:39:06.083Z,77.10
2018-12-10T21:41:34.478Z,77.00
2018-12-10T21:44:03.267Z,76.90
2018-12-10T21:46:31.658Z,76.70
2018-12-10T21:49:00.024Z,76.60
2018-12-10T21:51:28.452Z,76.80
2018-12-10T21:53:56.792Z,76.90
2018-12-10T21:56:25.569Z,76.50
2018-12-10T21:58:54.041Z,76.60
2018-12-10T22:01:22.381Z,76.60
2018-12-10T22:03:51.280Z,76.40
2018-12-10T22:06:19.768Z,76.40
2018-12-10T22:08:48.144Z,75.60
2018-12-10T22:11:16.763Z,75.70
2018-12-10T22:13:45.119Z,75.70
2018-12-10T22:16:13.512Z,76.30
2018-12-10T22:18:41.884Z,76.40
2018-12-10T22:21:10.392Z,76.20
2018-12-10T22:23:38.735Z,76.30
2018-12-10T22:26:07.264Z,76.30
2018-12-10T22:28:35.736Z,76.30
2018-12-10T22:31:04.094Z,76.40
2018-12-10T22:33:32.579Z,76.20
2018-12-10T22:36:00.947Z,75.60
2018-12-10T22:38:29.288Z,75.80
2018-12-10T22:40:57.660Z,75.80
2018-12-10T22:43:26.001Z,76.90
2018-12-10T22:45:54.431Z,76.40
2018-12-10T22:48:22.819Z,76.40
2018-12-10T22:50:51.184Z,76.40
2018-12-10T22:53:19.537Z,75.90
2018-12-10T22:55:47.919Z,76.20
2018-12-10T22:58:16.286Z,75.80
2018-12-10T23:00:51.549Z,75.50
2018-12-10T23:03:21.115Z,75.30
2018-12-10T23:05:50.828Z,75.60
2018-12-10T23:08:19.236Z,75.20
2018-12-10T23:10:47.813Z,75.10
2018-12-10T23:13:16.151Z,75.00
2018-12-10T23:15:44.667Z,74.50
2018-12-10T23:18:13.233Z,74.70
2018-12-10T23:20:41.583Z,74.50
2018-12-10T23:23:09.959Z,74.60
2018-12-10T23:25:38.309Z,74.40
2018-12-10T23:28:06.687Z,74.50
2018-12-10T23:30:35.071Z,74.90
2018-12-10T23:33:03.443Z,75.10
2018-12-10T23:35:31.871Z,74.50
2018-12-10T23:38:00.223Z,74.10
2018-12-10T23:40:28.588Z,74.80
2018-12-10T23:43:02.466Z,74.50
2018-12-10T23:45:30.836Z,73.60
2018-12-10T23:47:59.291Z,73.30
2018-12-10T23:50:27.663Z,73.00
2018-12-10T23:52:56.139Z,73.40
2018-12-10T23:55:24.531Z,73.60
2018-12-10T23:57:52.907Z,73.00
